createdAt,value
2023-05-03T00:00:17.306Z,101079.94
2023-05-03T00:02:46.995Z,101085.34
2023-05-03T00:05:15.725Z,101074.53
2023-05-03T00:07:44.787Z,101080.94
2023-05-03T00:10:15.945Z,101070.97
2023-05-03T00:12:44.676Z,101066.88
2023-05-03T00:15:12.951Z,101068.06
2023-05-03T00:17:41.214Z,101068.34
2023-05-03T00:20:12.948Z,101073.22
2023-05-03T00:22:41.220Z,101073.00
2023-05-03T00:25:09.760Z,101070.44
2023-05-03T00:27:38.566Z,101073.31
2023-05-03T00:30:07.310Z,101073.94
2023-05-03T00:32:35.593Z,101075.63
2023-05-03T00:35:03.967Z,101072.94
2023-05-03T00:37:33.631Z,101075.09
2023-05-03T00:40:02.293Z,101074.28
2023-05-03T00:42:30.744Z,101070.00
2023-05-03T00:44:58.773Z,101067.78
2023-05-03T00:47:26.843Z,101068.03
2023-05-03T00:49:54.993Z,101060.06
2023-05-03T00:52:23.132Z,101065.81
2023-05-03T00:54:53.218Z,101055.97
2023-05-03T00:57:22.984Z,101060.88
2023-05-03T00:59:51.253Z,101065.56
2023-05-03T01:02:19.318Z,101049.97
2023-05-03T01:04:48.523Z,101057.41
2023-05-03T01:07:19.853Z,101047.03
2023-05-03T01:09:54.710Z,101051.19
2023-05-03T01:12:32.434Z,101047.88
2023-05-03T01:15:04.130Z,101048.88
2023-05-03T01:17:36.810Z,101048.56
2023-05-03T01:20:08.407Z,101049.28
2023-05-03T01:22:42.902Z,101059.06
2023-05-03T01:25:13.466Z,101060.47
2023-05-03T01:27:42.168Z,101058.78
2023-05-03T01:30:11.767Z,101057.91
2023-05-03T01:32:47.924Z,101054.75
2023-05-03T01:35:20.378Z,101054.63
2023-05-03T01:37:49.161Z,101059.00
2023-05-03T01:40:19.926Z,101053.44
2023-05-03T01:42:48.902Z,101041.09
2023-05-03T01:45:17.315Z,101049.22
2023-05-03T01:47:45.382Z,101044.81
2023-05-03T01:50:13.587Z,101045.78
2023-05-03T01:52:41.736Z,101046.94
2023-05-03T01:55:10.224Z,101044.41
2023-05-03T01:57:39.704Z,101042.84
2023-05-03T02:00:09.311Z,101032.50
2023-05-03T02:02:40.945Z,101032.97
2023-05-03T02:05:10.634Z,101033.28
2023-05-03T02:07:39.430Z,101031.91
2023-05-03T02:10:08.041Z,101030.50
2023-05-03T02:12:36.099Z,101022.00
2023-05-03T02:15:06.549Z,101020.59
2023-05-03T02:17:35.113Z,101012.81
2023-05-03T02:20:03.683Z,101013.81
2023-05-03T02:22:33.757Z,101009.41
2023-05-03T02:25:02.185Z,101002.31
2023-05-03T02:27:30.261Z,101005.00
2023-05-03T02:29:58.758Z,101008.69
2023-05-03T02:32:29.100Z,101002.31
2023-05-03T02:34:57.167Z,101004.00
2023-05-03T02:37:26.432Z,100997.91
2023-05-03T02:39:55.037Z,101005.00
2023-05-03T02:42:24.120Z,101000.59
2023-05-03T02:44:52.477Z,100999.59
2023-05-03T02:47:21.544Z,100995.91
2023-05-03T02:49:51.584Z,100997.63
2023-05-03T02:52:19.707Z,100993.72
2023-05-03T02:54:49.687Z,101006.09
2023-05-03T02:57:18.255Z,100996.69
2023-05-03T02:59:46.283Z,100990.28
2023-05-03T03:02:14.571Z,101001.47
2023-05-03T03:04:42.713Z,101002.31
2023-05-03T03:07:13.029Z,101004.88
2023-05-03T03:09:41.224Z,100998.84
2023-05-03T03:12:09.464Z,101000.53
2023-05-03T03:14:38.488Z,101008.03
2023-05-03T03:17:09.051Z,101008.59
2023-05-03T03:19:37.355Z,101004.00
2023-05-03T03:22:05.517Z,101002.69
2023-05-03T03:24:35.731Z,100999.31
2023-05-03T03:27:05.075Z,101000.94
2023-05-03T03:29:33.922Z,100994.97
2023-05-03T03:32:03.577Z,100994.50
2023-05-03T03:34:32.392Z,100992.84
2023-05-03T03:37:01.002Z,100999.91
2023-05-03T03:39:29.970Z,100995.38
2023-05-03T03:41:59.524Z,101004.16
2023-05-03T03:44:27.707Z,101000.78
2023-05-03T03:46:55.883Z,101002.63
2023-05-03T03:49:24.471Z,100999.59
2023-05-03T03:51:52.573Z,101003.00
2023-05-03T03:54:20.622Z,100995.91
2023-05-03T03:56:52.464Z,100999.31
2023-05-03T03:59:22.509Z,101003.84
2023-05-03T04:01:51.119Z,100999.31
2023-05-03T04:04:19.658Z,100998.28
2023-05-03T04:06:48.353Z,101000.00
2023-05-03T04:09:18.290Z,100996.63
2023-05-03T04:11:47.501Z,100993.91
2023-05-03T04:14:15.597Z,100992.19
2023-05-03T04:16:45.656Z,100990.81
2023-05-03T04:19:14.626Z,100991.34
2023-05-03T04:21:43.917Z,100988.78
2023-05-03T04:24:16.238Z,100997.59
2023-05-03T04:26:44.776Z,100993.19
2023-05-03T04:29:20.733Z,100988.50
2023-05-03T04:31:50.481Z,100991.50
2023-05-03T04:34:19.292Z,100987.44
2023-05-03T04:36:50.122Z,100988.09
2023-05-03T04:39:18.608Z,100983.69
2023-05-03T04:41:48.928Z,100987.44
2023-05-03T04:44:17.114Z,100983.69
2023-05-03T04:46:48.153Z,100987.13
2023-05-03T04:49:19.131Z,100989.09
2023-05-03T04:51:47.156Z,100993.66
2023-05-03T04:54:15.698Z,100997.06
2023-05-03T04:56:44.076Z,100993.50
2023-05-03T04:59:17.439Z,100993.50
2023-05-03T05:01:46.009Z,101000.78
2023-05-03T05:04:15.179Z,100998.91
2023-05-03T05:06:49.665Z,100999.91
2023-05-03T05:09:22.350Z,101004.16
2023-05-03T05:11:52.381Z,101007.03
2023-05-03T05:14:22.267Z,101001.63
2023-05-03T05:16:51.200Z,101009.72
2023-05-03T05:19:19.326Z,101001.63
2023-05-03T05:21:49.372Z,101005.88
2023-05-03T05:24:17.898Z,100999.31
2023-05-03T05:26:46.471Z,101005.25
2023-05-03T05:29:16.478Z,100997.97
2023-05-03T05:31:44.891Z,101008.50
2023-05-03T05:34:13.070Z,101002.94
2023-05-03T05:36:41.980Z,101014.97
2023-05-03T05:39:12.085Z,101013.69
2023-05-03T05:41:40.296Z,101013.38
2023-05-03T05:44:08.465Z,101021.19
2023-05-03T05:46:36.861Z,101010.72
2023-05-03T05:49:05.314Z,101011.25
2023-05-03T05:51:33.708Z,101013.50
2023-05-03T05:54:02.062Z,101015.19
2023-05-03T05:56:31.538Z,101020.84
2023-05-03T05:59:00.934Z,101016.09
2023-05-03T06:01:29.234Z,101018.97
2023-05-03T06:03:57.406Z,101021.91
2023-05-03T06:06:26.344Z,101018.88
2023-05-03T06:08:54.364Z,101019.22
2023-05-03T06:11:22.875Z,101018.06
2023-05-03T06:13:52.604Z,101026.56
2023-05-03T06:16:22.241Z,101029.63
2023-05-03T06:18:52.307Z,101020.19
2023-05-03T06:21:20.391Z,101020.56
2023-05-03T06:23:48.854Z,101020.94
2023-05-03T06:26:17.748Z,101026.84
2023-05-03T06:28:47.419Z,101027.06
2023-05-03T06:31:17.226Z,101019.28
2023-05-03T06:33:46.678Z,101015.06
2023-05-03T06:36:18.102Z,101012.38
2023-05-03T06:38:46.169Z,101008.88
2023-05-03T06:41:14.248Z,101009.88
2023-05-03T06:43:42.611Z,101004.50
2023-05-03T06:46:12.554Z,101013.50
2023-05-03T06:48:42.202Z,101019.44
2023-05-03T06:51:10.292Z,101012.03
2023-05-03T06:53:38.567Z,101006.94
2023-05-03T06:56:07.129Z,101009.00
2023-05-03T06:58:35.317Z,101012.91
2023-05-03T07:01:03.577Z,101007.03
2023-05-03T07:03:31.839Z,101000.78
2023-05-03T07:06:02.344Z,100997.41
2023-05-03T07:08:30.849Z,100994.84
2023-05-03T07:10:59.276Z,100990.78
2023-05-03T07:13:27.736Z,100986.34
2023-05-03T07:15:56.209Z,100989.06
2023-05-03T07:18:24.305Z,100977.53
2023-05-03T07:20:52.537Z,100970.38
2023-05-03T07:23:22.110Z,100970.19
2023-05-03T07:25:50.203Z,100960.16
2023-05-03T07:28:18.452Z,100957.59
2023-05-03T07:30:47.257Z,100953.03
2023-05-03T07:33:15.757Z,100956.41
2023-05-03T07:35:44.392Z,100947.56
2023-05-03T07:38:12.747Z,100937.91
2023-05-03T07:40:42.763Z,100930.84
2023-05-03T07:43:11.284Z,100931.97
2023-05-03T07:45:39.520Z,100926.81
2023-05-03T07:48:07.783Z,100924.19
2023-05-03T07:50:36.052Z,100910.00
2023-05-03T07:53:04.272Z,100909.13
2023-05-03T07:55:33.184Z,100899.38
2023-05-03T07:58:04.054Z,100895.81
2023-05-03T08:00:32.595Z,100880.00
2023-05-03T08:03:02.460Z,100876.66
2023-05-03T08:05:30.825Z,100871.66
2023-05-03T08:07:59.302Z,100864.72
2023-05-03T08:10:27.334Z,100855.75
2023-05-03T08:12:55.445Z,100849.28
2023-05-03T08:15:25.388Z,100846.41
2023-05-03T08:17:54.033Z,100848.31
2023-05-03T08:20:22.713Z,100839.22
2023-05-03T08:22:50.844Z,100846.03
2023-05-03T08:25:19.749Z,100830.91
2023-05-03T08:27:47.852Z,100834.72
2023-05-03T08:30:16.109Z,100825.03
2023-05-03T08:32:45.627Z,100821.50
2023-05-03T08:35:15.391Z,100826.91
2023-05-03T08:37:44.103Z,100827.97
2023-05-03T08:40:14.452Z,100831.34
2023-05-03T08:42:43.132Z,100827.16
2023-05-03T08:45:11.787Z,100823.34
2023-05-03T08:47:40.849Z,100825.66
2023-05-03T08:50:11.507Z,100831.78
2023-05-03T08:52:41.757Z,100830.50
2023-05-03T08:55:10.528Z,100838.88
2023-05-03T08:57:38.624Z,100834.13
2023-05-03T09:00:10.760Z,100831.56
2023-05-03T09:02:40.140Z,100821.03
2023-05-03T09:05:26.134Z,100831.19
2023-05-03T09:08:04.027Z,100826.38
2023-05-03T09:10:32.284Z,100827.38
2023-05-03T09:13:01.386Z,100828.72
2023-05-03T09:15:30.775Z,100828.03
2023-05-03T09:18:09.875Z,100827.00
2023-05-03T09:20:38.980Z,100828.50
2023-05-03T09:23:09.640Z,100825.56
2023-05-03T09:25:41.605Z,100814.72
2023-05-03T09:28:10.361Z,100820.38
2023-05-03T09:30:38.427Z,100815.34
2023-05-03T09:33:06.612Z,100821.16
2023-05-03T09:35:35.064Z,100821.28
2023-05-03T09:38:03.112Z,100819.91
2023-05-03T09:40:32.543Z,100825.09
2023-05-03T09:43:08.209Z,100827.72
2023-05-03T09:45:37.008Z,100828.91
2023-05-03T09:48:05.967Z,100825.78
2023-05-03T09:50:35.216Z,100824.22
2023-05-03T09:53:04.795Z,100822.09
2023-05-03T09:55:35.669Z,100827.97
2023-05-03T09:58:06.703Z,100823.59
2023-05-03T10:00:39.338Z,100830.16
2023-05-03T10:03:09.603Z,100833.06
2023-05-03T10:05:42.200Z,100817.78
2023-05-03T10:08:11.520Z,100823.00
2023-05-03T10:10:43.517Z,100825.97
2023-05-03T10:13:12.533Z,100826.16
2023-05-03T10:15:43.010Z,100842.03
2023-05-03T10:18:14.032Z,100836.53
2023-05-03T10:20:44.613Z,100835.28
2023-05-03T10:23:13.952Z,100835.66
2023-05-03T10:26:03.666Z,100835.97
2023-05-03T10:28:31.828Z,100822.63
2023-05-03T10:31:00.123Z,100824.22
2023-05-03T10:33:33.972Z,100820.22
2023-05-03T10:36:06.977Z,100813.25
2023-05-03T10:38:35.051Z,100813.69
2023-05-03T10:41:06.931Z,100805.03
2023-05-03T10:43:45.035Z,100815.41
2023-05-03T10:46:32.584Z,100807.50
2023-05-03T10:49:24.446Z,100808.38
2023-05-03T10:51:53.435Z,100812.44
2023-05-03T10:54:21.675Z,100822.19
2023-05-03T10:56:52.256Z,100809.44
2023-05-03T10:59:21.126Z,100809.13
2023-05-03T11:01:51.209Z,100809.81
2023-05-03T11:04:34.633Z,100816.97
2023-05-03T11:07:02.971Z,100816.78
2023-05-03T11:09:34.842Z,100805.28
2023-05-03T11:12:08.716Z,100809.06
2023-05-03T11:14:36.899Z,100804.00
2023-05-03T11:17:05.561Z,100795.06
2023-05-03T11:19:34.067Z,100802.03
2023-05-03T11:22:02.524Z,100797.47
2023-05-03T11:24:30.779Z,100789.00
2023-05-03T11:26:58.812Z,100778.28
2023-05-03T11:29:28.754Z,100786.88
2023-05-03T11:31:56.996Z,100786.59
2023-05-03T11:34:25.682Z,100785.38
2023-05-03T11:36:53.748Z,100793.34
2023-05-03T11:39:22.464Z,100792.75
2023-05-03T11:42:04.706Z,100796.41
2023-05-03T11:44:36.122Z,100791.88
2023-05-03T11:47:04.601Z,100798.38
2023-05-03T11:49:33.163Z,100787.19
2023-05-03T11:52:01.300Z,100793.31
2023-05-03T11:54:29.283Z,100788.94
2023-05-03T11:56:58.258Z,100778.31
2023-05-03T11:59:38.773Z,100789.34
2023-05-03T12:02:08.058Z,100779.59
2023-05-03T12:04:41.685Z,100791.00
2023-05-03T12:07:11.481Z,100774.06
2023-05-03T12:09:41.625Z,100774.88
2023-05-03T12:12:14.723Z,100781.16
2023-05-03T12:14:58.275Z,100768.28
2023-05-03T12:17:37.826Z,100770.94
2023-05-03T12:22:51.271Z,100755.38
2023-05-03T12:25:21.708Z,100755.03
2023-05-03T12:28:12.788Z,100756.94
2023-05-03T12:30:45.841Z,100743.84
2023-05-03T12:33:16.290Z,100752.53
2023-05-03T12:35:47.818Z,100750.25
2023-05-03T12:38:17.840Z,100744.34
2023-05-03T12:40:48.306Z,100722.50
2023-05-03T12:43:17.183Z,100733.97
2023-05-03T12:45:53.108Z,100735.03
2023-05-03T12:48:33.034Z,100735.19
2023-05-03T12:51:18.537Z,100729.41
2023-05-03T12:53:54.330Z,100725.25
2023-05-03T12:56:24.713Z,100722.72
2023-05-03T12:59:19.448Z,100713.53
2023-05-03T13:06:47.165Z,100702.63
2023-05-03T13:09:21.172Z,100710.16
2023-05-03T13:11:51.212Z,100704.84
2023-05-03T13:14:19.563Z,100711.78
2023-05-03T13:16:49.670Z,100707.19
2023-05-03T13:19:18.044Z,100703.94
2023-05-03T13:21:48.373Z,100696.59
2023-05-03T13:24:16.468Z,100698.31
2023-05-03T13:26:44.501Z,100691.00
2023-05-03T13:29:12.751Z,100698.91
2023-05-03T13:31:41.843Z,100701.16
2023-05-03T13:34:11.414Z,100698.41
2023-05-03T13:36:39.552Z,100696.13
2023-05-03T13:39:09.895Z,100702.31
2023-05-03T13:41:40.769Z,100697.97
2023-05-03T13:44:09.175Z,100692.28
2023-05-03T13:46:38.700Z,100704.19
2023-05-03T13:49:07.508Z,100706.81
2023-05-03T13:51:37.723Z,100706.56
2023-05-03T13:54:07.376Z,100703.34
2023-05-03T13:56:35.492Z,100699.84
2023-05-03T13:59:04.511Z,100689.66
2023-05-03T14:01:32.806Z,100682.81
2023-05-03T14:04:01.127Z,100693.16
2023-05-03T14:06:31.156Z,100683.53
2023-05-03T14:09:02.935Z,100684.84
2023-05-03T14:11:31.969Z,100680.22
2023-05-03T14:14:00.359Z,100677.91
2023-05-03T14:18:59.742Z,100670.88
2023-05-03T14:21:29.753Z,100662.56
2023-05-03T14:23:57.802Z,100658.84
2023-05-03T14:26:29.668Z,100663.34
2023-05-03T14:28:58.266Z,100660.81
2023-05-03T14:31:26.607Z,100662.34
2023-05-03T14:33:55.225Z,100662.75
2023-05-03T14:36:23.337Z,100662.78
2023-05-03T14:38:51.359Z,100656.44
2023-05-03T14:41:19.530Z,100659.81
2023-05-03T14:43:49.430Z,100659.22
2023-05-03T14:46:17.494Z,100656.28
2023-05-03T14:48:45.568Z,100660.28
2023-05-03T14:51:15.108Z,100666.25
2023-05-03T14:53:43.124Z,100654.50
2023-05-03T14:56:11.460Z,100655.63
2023-05-03T14:58:39.659Z,100650.06
2023-05-03T15:01:09.763Z,100645.63
2023-05-03T15:03:38.304Z,100643.38
2023-05-03T15:06:06.492Z,100654.75
2023-05-03T15:08:34.526Z,100640.78
2023-05-03T15:11:03.145Z,100635.88
2023-05-03T15:13:31.917Z,100635.31
2023-05-03T15:16:00.162Z,100630.66
2023-05-03T15:18:29.698Z,100630.06
2023-05-03T15:20:57.844Z,100629.75
2023-05-03T15:23:25.934Z,100635.66
2023-05-03T15:25:54.049Z,100626.75
2023-05-03T15:28:22.229Z,100626.78
2023-05-03T15:30:50.936Z,100624.16
2023-05-03T15:33:19.039Z,100617.25
2023-05-03T15:35:48.546Z,100616.72
2023-05-03T15:38:17.974Z,100622.13
2023-05-03T15:40:46.502Z,100620.72
2023-05-03T15:43:14.531Z,100618.88
2023-05-03T15:45:42.968Z,100613.88
2023-05-03T15:48:11.153Z,100623.13
2023-05-03T15:50:39.292Z,100610.56
2023-05-03T15:53:09.249Z,100615.41
2023-05-03T15:55:37.400Z,100607.19
2023-05-03T15:58:07.567Z,100604.13
2023-05-03T16:00:35.745Z,100596.69
2023-05-03T16:03:04.056Z,100597.81
2023-05-03T16:05:32.687Z,100590.09
2023-05-03T16:08:01.128Z,100586.28
2023-05-03T16:10:30.796Z,100598.94
2023-05-03T16:12:58.805Z,100596.41
2023-05-03T16:15:27.213Z,100605.81
2023-05-03T16:17:55.629Z,100587.72
2023-05-03T16:20:24.095Z,100592.16
2023-05-03T16:22:52.887Z,100601.22
2023-05-03T16:25:21.706Z,100593.22
2023-05-03T16:27:51.180Z,100589.63
2023-05-03T16:30:19.210Z,100587.13
2023-05-03T16:32:48.315Z,100574.72
2023-05-03T16:35:16.558Z,100580.63
2023-05-03T16:37:44.713Z,100583.13
2023-05-03T16:40:12.844Z,100585.03
2023-05-03T16:42:41.142Z,100587.34
2023-05-03T16:45:11.738Z,100582.28
2023-05-03T16:47:40.569Z,100586.06
2023-05-03T16:50:09.278Z,100582.28
2023-05-03T16:52:39.214Z,100593.22
2023-05-03T16:55:07.686Z,100582.28
2023-05-03T16:57:36.577Z,100580.41
2023-05-03T17:00:08.796Z,100579.78
2023-05-03T17:02:39.836Z,100574.09
2023-05-03T17:05:09.993Z,100570.13
2023-05-03T17:07:42.253Z,100569.25
2023-05-03T17:10:10.803Z,100573.69
2023-05-03T17:12:39.230Z,100565.91
2023-05-03T17:15:08.170Z,100566.75
2023-05-03T17:17:36.356Z,100563.81
2023-05-03T17:20:07.370Z,100572.22
2023-05-03T17:22:36.220Z,100572.44
2023-05-03T17:25:04.417Z,100565.69
2023-05-03T17:27:32.808Z,100571.16
2023-05-03T17:30:00.841Z,100570.75
2023-05-03T17:32:29.076Z,100572.19
2023-05-03T17:34:58.213Z,100561.03
2023-05-03T17:37:28.669Z,100562.53
2023-05-03T17:39:56.731Z,100555.81
2023-05-03T17:42:24.796Z,100551.59
2023-05-03T17:44:54.854Z,100555.38
2023-05-03T17:47:25.153Z,100554.53
2023-05-03T17:49:53.463Z,100554.53
2023-05-03T17:52:22.096Z,100549.06
2023-05-03T17:54:52.415Z,100551.97
2023-05-03T17:57:21.644Z,100550.94
2023-05-03T17:59:49.982Z,100552.34
2023-05-03T18:02:21.158Z,100541.84
2023-05-03T18:04:51.384Z,100543.47
2023-05-03T18:07:22.193Z,100545.56
2023-05-03T18:09:54.277Z,100547.63
2023-05-03T18:12:24.410Z,100541.31
2023-05-03T18:14:59.723Z,100539.16
2023-05-03T18:17:28.408Z,100544.81
2023-05-03T18:19:56.569Z,100535.34
2023-05-03T18:22:27.776Z,100535.13
2023-05-03T18:24:59.117Z,100535.97
2023-05-03T18:27:27.334Z,100534.00
2023-05-03T18:29:55.484Z,100532.31
2023-05-03T18:32:24.265Z,100537.44
2023-05-03T18:34:52.311Z,100527.00
2023-05-03T18:37:24.489Z,100530.16
2023-05-03T18:39:53.114Z,100530.16
2023-05-03T18:42:22.863Z,100532.97
2023-05-03T18:44:52.151Z,100533.84
2023-05-03T18:47:21.543Z,100527.09
2023-05-03T18:49:52.844Z,100527.53
2023-05-03T18:52:21.551Z,100521.00
2023-05-03T18:54:49.888Z,100523.50
2023-05-03T18:57:18.844Z,100525.75
2023-05-03T18:59:59.444Z,100528.69
2023-05-03T19:02:30.960Z,100532.84
2023-05-03T19:04:59.972Z,100534.66
2023-05-03T19:07:28.549Z,100523.94
2023-05-03T19:09:57.252Z,100529.44
2023-05-03T19:12:25.555Z,100524.38
2023-05-03T19:14:55.176Z,100522.59
2023-05-03T19:17:23.627Z,100521.03
2023-05-03T19:19:52.226Z,100511.75
2023-05-03T19:22:20.604Z,100507.91
2023-05-03T19:24:48.974Z,100503.03
2023-05-03T19:27:17.573Z,100499.84
2023-05-03T19:29:45.826Z,100491.63
2023-05-03T19:32:16.015Z,100491.75
2023-05-03T19:34:43.934Z,100484.53
2023-05-03T19:37:12.090Z,100484.03
2023-05-03T19:39:40.471Z,100486.84
2023-05-03T19:42:09.103Z,100483.88
2023-05-03T19:44:37.564Z,100485.69
2023-05-03T19:47:05.985Z,100483.69
2023-05-03T19:49:35.433Z,100486.59
2023-05-03T19:52:06.004Z,100485.31
2023-05-03T19:54:34.279Z,100489.97
2023-05-03T19:57:04.826Z,100491.50
2023-05-03T19:59:33.174Z,100489.69
2023-05-03T20:02:01.547Z,100480.88
2023-05-03T20:04:29.772Z,100472.75
2023-05-03T20:06:59.240Z,100464.81
2023-05-03T20:09:27.438Z,100460.97
2023-05-03T20:11:58.808Z,100464.59
2023-05-03T20:14:28.017Z,100463.66
2023-05-03T20:16:59.572Z,100457.56
2023-05-03T20:19:27.825Z,100454.41
2023-05-03T20:21:56.448Z,100469.44
2023-05-03T20:24:26.886Z,100468.44
2023-05-03T20:26:54.994Z,100469.28
2023-05-03T20:29:23.023Z,100460.84
2023-05-03T20:31:52.048Z,100453.28
2023-05-03T20:34:20.208Z,100444.81
2023-05-03T20:36:48.422Z,100432.47
2023-05-03T20:39:16.379Z,100433.41
2023-05-03T20:41:46.098Z,100446.03
2023-05-03T20:44:14.222Z,100447.09
2023-05-03T20:46:42.376Z,100448.75
2023-05-03T20:49:10.766Z,100444.72
2023-05-03T20:51:39.089Z,100453.53
2023-05-03T20:54:07.133Z,100458.47
2023-05-03T20:56:35.297Z,100454.53
2023-05-03T20:59:05.647Z,100451.38
2023-05-03T21:01:33.797Z,100448.38
2023-05-03T21:04:03.063Z,100452.00
2023-05-03T21:06:31.120Z,100441.69
2023-05-03T21:08:59.211Z,100439.84
2023-05-03T21:11:27.236Z,100444.94
2023-05-03T21:13:55.457Z,100440.53
2023-05-03T21:16:25.463Z,100437.94
2023-05-03T21:18:53.863Z,100435.88
2023-05-03T21:21:23.158Z,100438.28
2023-05-03T21:23:51.650Z,100434.06
2023-05-03T21:26:21.227Z,100432.84
2023-05-03T21:28:53.387Z,100433.22
2023-05-03T21:31:22.318Z,100415.53
2023-05-03T21:33:52.294Z,100417.03
2023-05-03T21:36:20.997Z,100417.03
2023-05-03T21:38:53.028Z,100404.88
2023-05-03T21:41:23.969Z,100403.00
2023-05-03T21:43:52.006Z,100394.69
2023-05-03T21:46:20.319Z,100383.84
2023-05-03T21:48:48.440Z,100371.84
2023-05-03T21:51:21.807Z,100370.47
2023-05-03T21:53:50.172Z,100367.94
2023-05-03T21:56:18.585Z,100364.22
2023-05-03T21:58:46.726Z,100358.28
2023-05-03T22:01:16.978Z,100357.47
2023-05-03T22:03:45.118Z,100334.44
2023-05-03T22:06:13.501Z,100334.44
2023-05-03T22:08:43.597Z,100311.44
2023-05-03T22:11:11.661Z,100330.41
2023-05-03T22:13:54.616Z,100327.88
2023-05-03T22:16:28.649Z,100317.22
2023-05-03T22:18:57.212Z,100324.31
2023-05-03T22:21:26.587Z,100317.22
2023-05-03T22:23:56.537Z,100316.19
2023-05-03T22:26:25.477Z,100317.22
2023-05-03T22:28:53.961Z,100323.66
2023-05-03T22:31:22.263Z,100323.38
2023-05-03T22:33:50.523Z,100326.72
2023-05-03T22:36:19.730Z,100327.22
2023-05-03T22:38:47.965Z,100333.16
2023-05-03T22:41:17.466Z,100340.66
2023-05-03T22:43:46.265Z,100343.50
2023-05-03T22:46:14.985Z,100348.91
2023-05-03T22:48:43.178Z,100348.03
2023-05-03T22:51:11.738Z,100339.28
2023-05-03T22:53:40.163Z,100338.06
2023-05-03T22:56:08.731Z,100338.06
2023-05-03T22:58:38.299Z,100338.22
2023-05-03T23:01:10.485Z,100340.94
2023-05-03T23:03:41.314Z,100340.47
2023-05-03T23:06:09.623Z,100344.00
2023-05-03T23:08:37.931Z,100346.34
2023-05-03T23:11:06.334Z,100351.78
2023-05-03T23:13:34.895Z,100355.16
2023-05-03T23:16:04.513Z,100366.00
2023-05-03T23:18:32.867Z,100357.19
2023-05-03T23:21:01.710Z,100349.75
2023-05-03T23:23:30.263Z,100342.16
2023-05-03T23:25:58.379Z,100335.88
2023-05-03T23:28:29.219Z,100339.63
2023-05-03T23:31:00.167Z,100347.22
2023-05-03T23:33:30.637Z,100342.63
2023-05-03T23:36:00.394Z,100346.00
2023-05-03T23:38:29.063Z,100344.31
2023-05-03T23:40:57.121Z,100341.41
2023-05-03T23:43:25.186Z,100343.63
2023-05-03T23:45:53.295Z,100345.63
2023-05-03T23:48:21.572Z,100341.25
2023-05-03T23:50:51.261Z,100347.66
2023-05-03T23:53:19.334Z,100336.38
2023-05-03T23:55:47.666Z,100342.25
2023-05-03T23:58:15.873Z,100331.22
